TimeCST,TemperatureF,Dew PointF,Humidity,Sea Level PressureIn,VisibilityMPH,Wind Direction,Wind SpeedMPH,Gust SpeedMPH,PrecipitationIn,Events,Conditions,WindDirDegrees,DateUTC
12:35 AM,48.2,41.0,76,29.77,10.0,NE,3.5,-,N/A,,Overcast,40,2013-03-05 06:35:00
12:55 AM,48.2,41.0,76,29.77,10.0,Calm,Calm,-,N/A,,Overcast,0,2013-03-05 06:55:00
1:15 AM,48.2,42.8,82,29.76,10.0,ESE,6.9,-,N/A,,Overcast,120,2013-03-05 07:15:00
1:35 AM,48.2,42.8,82,29.76,10.0,ESE,5.8,-,N/A,,Overcast,120,2013-03-05 07:35:00
1:55 AM,48.2,42.8,82,29.76,10.0,SE,4.6,-,N/A,,Mostly Cloudy,130,2013-03-05 07:55:00
2:15 AM,48.2,42.8,82,29.76,10.0,ENE,3.5,-,N/A,,Mostly Cloudy,60,2013-03-05 08:15:00
2:35 AM,46.4,41.0,81,29.76,10.0,NE,3.5,-,N/A,,Overcast,50,2013-03-05 08:35:00
2:55 AM,46.4,41.0,81,29.76,10.0,North,4.6,-,N/A,,Overcast,10,2013-03-05 08:55:00
3:15 AM,46.4,41.0,81,29.75,10.0,NNE,3.5,-,N/A,,Scattered Clouds,20,2013-03-05 09:15:00
3:35 AM,44.6,39.2,81,29.76,10.0,Calm,Calm,-,N/A,,Clear,0,2013-03-05 09:35:00
3:55 AM,44.6,41.0,87,29.76,10.0,Calm,Calm,-,N/A,,Clear,0,2013-03-05 09:55:00
4:15 AM,41.0,37.4,87,29.78,7.0,Calm,Calm,-,N/A,,Scattered Clouds,0,2013-03-05 10:15:00
4:35 AM,42.8,39.2,87,29.79,10.0,WNW,4.6,-,N/A,,Mostly Cloudy,290,2013-03-05 10:35:00
4:55 AM,44.6,41.0,87,29.79,10.0,NW,4.6,-,N/A,,Scattered Clouds,310,2013-03-05 10:55:00
5:15 AM,44.6,41.0,87,29.78,10.0,NW,4.6,-,N/A,,Scattered Clouds,320,2013-03-05 11:15:00
5:35 AM,44.6,41.0,87,29.77,10.0,NNW,5.8,-,N/A,,Mostly Cloudy,340,2013-03-05 11:35:00
5:55 AM,44.6,41.0,87,29.77,10.0,Calm,Calm,-,N/A,,Scattered Clouds,0,2013-03-05 11:55:00
6:35 AM,42.8,39.2,87,29.77,10.0,Calm,Calm,-,N/A,,Scattered Clouds,0,2013-03-05 12:35:00
6:55 AM,44.6,41.0,87,29.79,10.0,South,4.6,-,N/A,,Mostly Cloudy,180,2013-03-05 12:55:00
7:15 AM,44.6,41.0,87,29.80,10.0,South,3.5,-,N/A,,Overcast,180,2013-03-05 13:15:00
7:35 AM,46.4,42.8,87,29.80,5.0,Calm,Calm,-,0.01,,Unknown,0,2013-03-05 13:35:00
7:55 AM,46.4,42.8,87,29.81,4.0,West,4.6,-,0.01,,Unknown,280,2013-03-05 13:55:00
8:15 AM,46.4,42.8,87,29.82,5.0,WNW,6.9,-,N/A,,Unknown,290,2013-03-05 14:15:00
8:35 AM,46.4,42.8,87,29.83,3.0,NW,10.4,16.1,0.02,,Unknown,320,2013-03-05 14:35:00
8:55 AM,46.4,42.8,87,29.82,4.0,NW,8.1,-,0.02,,Unknown,310,2013-03-05 14:55:00
9:15 AM,46.4,41.0,81,29.83,5.0,WNW,11.5,17.3,0.01,,Overcast,300,2013-03-05 15:15:00
9:35 AM,44.6,41.0,87,29.85,5.0,WNW,16.1,23.0,0.01,,Overcast,300,2013-03-05 15:35:00
9:55 AM,42.8,37.4,81,29.86,10.0,WNW,15.0,26.5,0.01,,Overcast,300,2013-03-05 15:55:00
10:15 AM,41.0,35.6,81,29.86,7.0,NW,18.4,27.6,N/A,,Overcast,310,2013-03-05 16:15:00
10:35 AM,39.2,33.8,81,29.87,4.0,NW,19.6,31.1,N/A,,Unknown,320,2013-03-05 16:35:00
10:55 AM,37.4,33.8,87,29.89,3.0,NW,16.1,27.6,N/A,Snow,Light Snow,310,2013-03-05 16:55:00
11:15 AM,37.4,33.8,87,29.91,4.0,WNW,17.3,25.3,N/A,Snow,Light Snow,300,2013-03-05 17:15:00
11:35 AM,37.4,33.8,87,29.92,4.0,WNW,18.4,26.5,N/A,Snow,Light Snow,300,2013-03-05 17:35:00
11:55 AM,37.4,33.8,87,29.93,5.0,WNW,15.0,23.0,N/A,Snow,Light Snow,300,2013-03-05 17:55:00
12:15 PM,37.4,33.8,87,29.93,7.0,WNW,12.7,24.2,N/A,,Overcast,300,2013-03-05 18:15:00
12:35 PM,39.2,33.8,81,29.94,10.0,WNW,15.0,25.3,N/A,,Overcast,300,2013-03-05 18:35:00
12:55 PM,39.2,33.8,81,29.94,10.0,West,15.0,19.6,N/A,,Overcast,280,2013-03-05 18:55:00
1:15 PM,39.2,33.8,81,29.94,10.0,WNW,16.1,23.0,N/A,,Overcast,300,2013-03-05 19:15:00
1:35 PM,39.2,33.8,81,29.94,10.0,WNW,15.0,24.2,N/A,,Overcast,290,2013-03-05 19:35:00
1:55 PM,41.0,33.8,76,29.94,10.0,WNW,18.4,25.3,N/A,,Overcast,300,2013-03-05 19:55:00
2:15 PM,42.8,33.8,70,29.94,10.0,West,20.7,26.5,N/A,,Overcast,280,2013-03-05 20:15:00
2:35 PM,42.8,32.0,66,29.95,10.0,WNW,19.6,33.4,N/A,,Overcast,290,2013-03-05 20:35:00
2:55 PM,42.8,32.0,66,29.96,10.0,WNW,19.6,26.5,N/A,,Overcast,290,2013-03-05 20:55:00
3:15 PM,42.8,32.0,66,29.97,10.0,WNW,12.7,24.2,N/A,,Overcast,290,2013-03-05 21:15:00
3:35 PM,41.0,30.2,65,29.98,10.0,West,24.2,32.2,N/A,,Overcast,280,2013-03-05 21:35:00
3:55 PM,42.8,30.2,61,29.99,10.0,WNW,21.9,31.1,N/A,,Mostly Cloudy,290,2013-03-05 21:55:00
4:15 PM,42.8,26.6,53,29.99,10.0,West,19.6,29.9,N/A,,Mostly Cloudy,280,2013-03-05 22:15:00
4:35 PM,42.8,26.6,53,30.00,10.0,West,26.5,29.9,N/A,,Mostly Cloudy,280,2013-03-05 22:35:00
4:55 PM,42.8,26.6,53,30.01,10.0,WNW,16.1,29.9,N/A,,Overcast,300,2013-03-05 22:55:00
5:15 PM,41.0,24.8,53,30.03,10.0,WNW,20.7,32.2,N/A,,Mostly Cloudy,290,2013-03-05 23:15:00
5:35 PM,41.0,24.8,53,30.05,10.0,WNW,28.8,35.7,N/A,,Overcast,300,2013-03-05 23:35:00
5:55 PM,37.4,21.2,52,30.07,10.0,NW,27.6,41.4,N/A,,Mostly Cloudy,310,2013-03-05 23:55:00
6:15 PM,37.4,21.2,52,30.08,10.0,WNW,23.0,31.1,N/A,,Overcast,300,2013-03-06 00:15:00
6:35 PM,37.4,21.2,52,30.08,10.0,West,18.4,25.3,N/A,,Overcast,280,2013-03-06 00:35:00
6:55 PM,37.4,21.2,52,30.07,10.0,West,18.4,26.5,N/A,,Overcast,270,2013-03-06 00:55:00
7:15 PM,37.4,21.2,52,30.08,10.0,West,17.3,27.6,N/A,,Overcast,280,2013-03-06 01:15:00
7:35 PM,37.4,23.0,56,30.08,10.0,West,15.0,21.9,N/A,,Overcast,270,2013-03-06 01:35:00
7:55 PM,35.6,23.0,60,30.07,10.0,West,12.7,21.9,N/A,,Mostly Cloudy,270,2013-03-06 01:55:00
8:15 PM,35.6,23.0,60,30.07,10.0,West,13.8,21.9,N/A,,Scattered Clouds,270,2013-03-06 02:15:00
8:35 PM,35.6,23.0,60,30.07,10.0,West,15.0,21.9,N/A,,Mostly Cloudy,280,2013-03-06 02:35:00
8:55 PM,37.4,23.0,56,30.08,10.0,West,16.1,24.2,N/A,,Overcast,280,2013-03-06 02:55:00
9:15 PM,37.4,23.0,56,30.09,10.0,WNW,20.7,29.9,N/A,,Overcast,300,2013-03-06 03:15:00
9:35 PM,37.4,24.8,60,30.10,10.0,WNW,20.7,33.4,N/A,,Overcast,300,2013-03-06 03:35:00
9:55 PM,37.4,24.8,60,30.10,10.0,WNW,17.3,31.1,N/A,,Overcast,300,2013-03-06 03:55:00
10:15 PM,37.4,24.8,60,30.10,10.0,WNW,16.1,24.2,N/A,,Overcast,290,2013-03-06 04:15:00
10:35 PM,37.4,24.8,60,30.10,10.0,WNW,12.7,-,N/A,,Overcast,290,2013-03-06 04:35:00
10:55 PM,37.4,24.8,60,30.10,10.0,WNW,17.3,26.5,N/A,,Overcast,290,2013-03-06 04:55:00
11:15 PM,37.4,24.8,60,30.10,10.0,WNW,17.3,25.3,N/A,,Overcast,300,2013-03-06 05:15:00
11:35 PM,37.4,24.8,60,30.11,10.0,WNW,13.8,21.9,N/A,,Overcast,300,2013-03-06 05:35:00
11:55 PM,37.4,24.8,60,30.11,10.0,WNW,19.6,29.9,N/A,,Overcast,300,2013-03-06 05:55:00